Time;durP1;ratioP1;P1;durP2;ratioP2;P2;SDS_P1;SDS_P2;PMS_P1;PMS_P2;Temp;Humidity;BMP_temperature;BMP_pressure;BME280_temperature;BME280_humidity;BME280_pressure;Samples;Min_cycle;Max_cycle;Signal;HPM_P1;HPM_P2
2021/07/01 00:01:03;;;;;;;4.00;2.10;;;13.70;99.90;;;;;;5050104;28;20500;-66
2021/07/01 00:03:30;;;;;;;4.40;2.17;;;13.70;99.90;;;;;;5051052;28;20531;-66
2021/07/01 00:05:57;;;;;;;3.10;1.73;;;13.70;99.90;;;;;;5050704;28;20483;-66
2021/07/01 00:08:25;;;;;;;4.00;1.87;;;13.70;99.90;;;;;;5051008;28;20447;-66
2021/07/01 00:10:52;;;;;;;2.60;1.40;;;13.70;99.90;;;;;;5050151;28;20610;-68
2021/07/01 00:13:20;;;;;;;3.13;1.50;;;13.70;99.90;;;;;;5050967;28;20530;-66
2021/07/01 00:15:49;;;;;;;2.77;1.57;;;13.70;99.90;;;;;;5050835;28;20567;-68
2021/07/01 00:18:16;;;;;;;3.10;1.90;;;13.70;99.90;;;;;;5050023;28;20885;-66
2021/07/01 00:20:43;;;;;;;3.90;2.67;;;13.70;99.90;;;;;;5049145;28;20464;-69
2021/07/01 00:23:10;;;;;;;3.20;1.43;;;13.70;99.90;;;;;;5050312;28;21056;-67
2021/07/01 00:25:37;;;;;;;2.60;1.23;;;13.80;99.90;;;;;;5050369;28;21022;-67
2021/07/01 00:28:05;;;;;;;3.07;1.47;;;13.70;99.90;;;;;;5049837;28;20451;-66
2021/07/01 00:30:32;;;;;;;3.47;2.10;;;13.70;99.90;;;;;;5049162;28;20467;-66
2021/07/01 00:33:00;;;;;;;2.67;1.47;;;13.70;99.90;;;;;;5050123;28;20492;-68
2021/07/01 00:35:27;;;;;;;2.57;1.37;;;13.70;99.90;;;;;;5050401;28;20490;-67
2021/07/01 00:37:54;;;;;;;2.70;1.57;;;13.80;99.90;;;;;;5050137;28;20823;-66
2021/07/01 00:40:20;;;;;;;2.60;1.70;;;13.70;99.90;;;;;;5049109;28;20554;-66
2021/07/01 00:42:47;;;;;;;2.50;1.50;;;13.70;99.90;;;;;;5049991;28;20551;-69
2021/07/01 00:45:14;;;;;;;3.43;1.67;;;13.80;99.90;;;;;;5049850;28;20548;-66
2021/07/01 00:47:42;;;;;;;3.33;1.30;;;13.70;99.90;;;;;;5049781;28;20475;-68
2021/07/01 00:50:13;;;;;;;3.23;1.43;;;13.70;99.90;;;;;;5049226;28;20467;-66
2021/07/01 00:52:41;;;;;;;3.00;1.43;;;13.70;99.90;;;;;;5050356;28;20427;-66
2021/07/01 00:55:09;;;;;;;4.83;1.70;;;13.70;99.90;;;;;;5050052;28;20539;-66
2021/07/01 00:57:38;;;;;;;5.40;1.80;;;13.70;99.90;;;;;;5049529;28;20482;-67
2021/07/01 01:00:15;;;;;;;2.93;1.73;;;13.70;99.90;;;;;;5049175;28;21024;-67
2021/07/01 01:02:43;;;;;;;2.67;1.47;;;13.70;99.90;;;;;;5050023;28;20539;-67
2021/07/01 01:05:11;;;;;;;3.07;1.50;;;13.70;99.90;;;;;;5049795;28;20440;-68
2021/07/01 01:07:38;;;;;;;3.10;1.83;;;13.70;99.90;;;;;;5049481;28;20538;-66
2021/07/01 01:10:06;;;;;;;5.03;1.80;;;13.80;99.90;;;;;;5048745;28;20466;-65
2021/07/01 01:12:33;;;;;;;2.57;1.43;;;13.80;99.90;;;;;;5049688;28;20958;-68
2021/07/01 01:14:59;;;;;;;4.13;2.00;;;13.80;99.90;;;;;;5049899;28;20451;-66
2021/07/01 01:17:26;;;;;;;3.10;1.53;;;13.80;99.90;;;;;;5049344;28;20899;-67
2021/07/01 01:19:53;;;;;;;3.83;1.60;;;13.80;99.90;;;;;;5048654;28;20495;-67
2021/07/01 01:22:21;;;;;;;3.87;1.60;;;13.80;99.90;;;;;;5049607;28;20946;-68
2021/07/01 01:24:48;;;;;;;2.40;1.30;;;13.80;99.90;;;;;;5048415;28;20448;-66
2021/07/01 01:27:15;;;;;;;3.00;1.53;;;13.80;99.90;;;;;;5049715;28;20440;-66
2021/07/01 01:29:43;;;;;;;3.00;1.30;;;13.80;99.90;;;;;;5048743;28;20464;-67
2021/07/01 01:32:10;;;;;;;2.60;1.50;;;13.90;99.90;;;;;;5049666;28;20440;-69
2021/07/01 01:34:37;;;;;;;3.80;1.73;;;13.90;99.90;;;;;;5049649;28;20539;-67
2021/07/01 01:37:07;;;;;;;3.17;1.93;;;13.90;99.90;;;;;;5049111;28;20475;-67
2021/07/01 01:39:36;;;;;;;3.10;1.90;;;14.00;99.90;;;;;;5049565;28;20530;-67
2021/07/01 01:42:03;;;;;;;2.93;1.60;;;14.00;99.90;;;;;;5053388;28;20866;-67
2021/07/01 01:44:30;;;;;;;3.10;2.07;;;14.00;99.90;;;;;;5053571;28;20535;-66
2021/07/01 01:46:57;;;;;;;3.70;2.30;;;14.00;99.90;;;;;;5052994;28;20452;-69
2021/07/01 01:49:23;;;;;;;5.30;2.00;;;14.00;99.90;;;;;;5052113;28;20450;-66
2021/07/01 01:51:50;;;;;;;3.53;2.03;;;14.00;99.90;;;;;;5053124;28;20870;-65
2021/07/01 01:54:17;;;;;;;3.30;2.40;;;14.00;99.90;;;;;;5053335;28;20917;-67
2021/07/01 01:56:48;;;;;;;3.37;2.13;;;13.90;99.90;;;;;;5053027;28;20578;-66
2021/07/01 01:59:15;;;;;;;3.37;2.23;;;13.90;99.90;;;;;;5052151;28;20448;-68
2021/07/01 02:01:41;;;;;;;4.93;2.63;;;13.90;99.90;;;;;;5053332;28;20459;-66
2021/07/01 02:04:08;;;;;;;4.10;2.63;;;13.90;99.90;;;;;;5053098;28;20454;-66
2021/07/01 02:06:37;;;;;;;4.40;2.90;;;13.90;99.90;;;;;;5053192;28;20475;-68
2021/07/01 02:09:04;;;;;;;4.50;3.53;;;13.90;99.90;;;;;;5052815;28;20901;-66
2021/07/01 02:11:31;;;;;;;4.33;2.50;;;13.90;99.90;;;;;;5052984;28;20463;-68
2021/07/01 02:13:59;;;;;;;4.60;2.30;;;13.90;99.90;;;;;;5053048;28;20542;-66
2021/07/01 02:16:27;;;;;;;4.67;2.77;;;13.90;99.90;;;;;;5052578;28;20824;-67
2021/07/01 02:18:54;;;;;;;3.30;2.43;;;13.90;99.90;;;;;;5052778;28;20531;-68
2021/07/01 02:21:21;;;;;;;4.10;2.10;;;13.90;99.90;;;;;;5052193;28;20905;-66
2021/07/01 02:23:49;;;;;;;2.90;1.93;;;13.90;99.90;;;;;;5052834;28;20901;-66
2021/07/01 02:26:16;;;;;;;3.57;1.60;;;14.00;99.90;;;;;;5052132;28;21149;-66
2021/07/01 02:28:43;;;;;;;3.03;1.60;;;14.00;99.90;;;;;;5052320;28;20816;-66
2021/07/01 02:31:11;;;;;;;3.20;1.90;;;14.00;99.90;;;;;;5051551;28;20969;-67
2021/07/01 02:33:38;;;;;;;2.60;1.73;;;14.00;99.90;;;;;;5052679;28;20456;-66
2021/07/01 02:36:06;;;;;;;4.37;1.90;;;14.00;99.90;;;;;;5052361;28;20562;-66
2021/07/01 02:38:33;;;;;;;3.63;1.73;;;14.00;99.90;;;;;;5052507;28;20447;-68
2021/07/01 02:41:00;;;;;;;3.00;1.97;;;14.00;99.90;;;;;;5051296;28;20563;-66
2021/07/01 02:43:26;;;;;;;3.47;1.40;;;14.00;99.90;;;;;;5052517;28;20448;-66
2021/07/01 02:45:53;;;;;;;3.63;1.90;;;14.00;99.90;;;;;;5052232;28;20448;-66
2021/07/01 02:48:22;;;;;;;2.80;1.60;;;14.00;99.90;;;;;;5052541;28;20522;-67
2021/07/01 02:50:49;;;;;;;3.03;1.20;;;14.00;99.90;;;;;;5051339;28;20464;-67
2021/07/01 02:53:15;;;;;;;4.07;1.80;;;14.00;99.90;;;;;;5052362;28;20539;-66
2021/07/01 02:55:42;;;;;;;2.63;1.53;;;14.00;99.90;;;;;;5052113;28;20522;-68
2021/07/01 02:58:09;;;;;;;2.27;1.20;;;14.00;99.90;;;;;;5051458;28;20483;-66
2021/07/01 03:00:36;;;;;;;2.57;1.33;;;14.00;99.90;;;;;;5051201;28;20555;-66
2021/07/01 03:03:03;;;;;;;3.70;1.67;;;14.00;99.90;;;;;;5052157;28;20451;-66
2021/07/01 03:05:31;;;;;;;3.10;1.93;;;14.00;99.90;;;;;;5051983;28;20823;-68
2021/07/01 03:07:58;;;;;;;3.87;2.10;;;14.00;99.90;;;;;;5051420;28;20527;-66
2021/07/01 03:10:25;;;;;;;3.50;2.30;;;14.00;99.90;;;;;;5051206;28;20474;-67
2021/07/01 03:12:52;;;;;;;2.60;1.70;;;14.00;99.90;;;;;;5051637;28;20830;-65
2021/07/01 03:15:19;;;;;;;4.70;1.83;;;14.00;99.90;;;;;;5051804;28;20534;-66
2021/07/01 03:17:46;;;;;;;3.60;2.00;;;14.00;99.90;;;;;;5051717;28;20587;-66
2021/07/01 03:20:13;;;;;;;3.30;2.40;;;14.00;99.90;;;;;;5051095;28;20559;-66
2021/07/01 03:22:41;;;;;;;3.27;2.33;;;14.00;99.90;;;;;;5051585;28;20930;-65
2021/07/01 03:25:09;;;;;;;3.40;2.20;;;14.00;99.90;;;;;;5051670;28;20493;-65
2021/07/01 03:27:36;;;;;;;3.00;2.10;;;14.00;99.90;;;;;;5051185;28;20902;-66
2021/07/01 03:30:03;;;;;;;3.03;1.63;;;14.00;99.90;;;;;;5050816;28;20981;-67
2021/07/01 03:32:30;;;;;;;3.30;1.50;;;14.00;99.90;;;;;;5052030;28;20452;-65
2021/07/01 03:34:57;;;;;;;2.50;1.57;;;14.00;99.90;;;;;;5051093;28;20454;-67
2021/07/01 03:37:24;;;;;;;2.33;1.30;;;14.00;99.90;;;;;;5050930;28;20482;-66
2021/07/01 03:39:52;;;;;;;2.90;1.40;;;14.00;99.90;;;;;;5050314;28;20486;-66
2021/07/01 03:42:21;;;;;;;2.70;1.70;;;13.90;99.90;;;;;;5051249;28;20483;-66
2021/07/01 03:44:48;;;;;;;3.80;1.83;;;13.90;99.90;;;;;;5051107;28;20459;-68
2021/07/01 03:47:15;;;;;;;4.10;1.63;;;13.90;99.90;;;;;;5050538;28;20451;-66
2021/07/01 03:49:41;;;;;;;4.30;1.60;;;13.90;99.90;;;;;;5050320;28;20470;-66
2021/07/01 03:52:09;;;;;;;3.90;2.00;;;13.90;99.90;;;;;;5051614;28;20448;-66
2021/07/01 03:54:36;;;;;;;2.90;1.50;;;13.90;99.90;;;;;;5050886;28;20458;-65
2021/07/01 03:57:05;;;;;;;2.60;1.57;;;13.90;99.90;;;;;;5050822;28;20491;-66
2021/07/01 03:59:32;;;;;;;3.10;1.87;;;13.90;99.90;;;;;;5050066;28;20458;-68
2021/07/01 04:01:59;;;;;;;2.67;1.60;;;13.90;99.90;;;;;;5050308;28;20889;-66
2021/07/01 04:04:26;;;;;;;2.07;0.90;;;13.90;99.90;;;;;;5050921;28;20447;-65
2021/07/01 04:06:52;;;;;;;3.13;1.50;;;13.90;99.90;;;;;;5050471;28;20542;-68
2021/07/01 04:09:19;;;;;;;4.40;1.90;;;13.90;99.90;;;;;;5049650;28;20882;-63
2021/07/01 04:11:46;;;;;;;2.60;1.60;;;13.90;99.90;;;;;;5050744;28;20450;-64
2021/07/01 04:14:18;;;;;;;3.50;1.30;;;13.90;99.90;;;;;;5050473;28;20458;-65
2021/07/01 04:16:46;;;;;;;2.90;1.50;;;13.90;99.90;;;;;;5050121;28;20533;-65
2021/07/01 04:19:13;;;;;;;2.57;1.27;;;13.80;99.90;;;;;;5049509;28;20459;-66
2021/07/01 04:21:40;;;;;;;2.10;1.00;;;13.90;99.90;;;;;;5050121;28;20479;-66
2021/07/01 04:24:07;;;;;;;3.33;1.37;;;13.90;99.90;;;;;;5050195;28;20978;-66
2021/07/01 04:26:34;;;;;;;3.07;1.53;;;13.90;99.90;;;;;;5049950;28;20444;-65
2021/07/01 04:29:01;;;;;;;2.83;1.03;;;14.00;99.90;;;;;;5049701;28;20496;-66
2021/07/01 04:31:30;;;;;;;2.47;1.17;;;14.00;99.90;;;;;;5049826;28;20468;-67
2021/07/01 04:33:57;;;;;;;2.27;1.17;;;14.00;99.90;;;;;;5050102;28;20513;-67
2021/07/01 04:36:24;;;;;;;2.20;0.90;;;14.10;99.90;;;;;;5049550;28;20490;-67
2021/07/01 04:38:51;;;;;;;3.10;1.20;;;14.10;99.90;;;;;;5050146;28;20535;-65
2021/07/01 04:41:19;;;;;;;2.27;0.97;;;14.00;99.90;;;;;;5049249;28;20920;-66
2021/07/01 04:43:47;;;;;;;4.03;1.20;;;14.00;99.90;;;;;;5049950;28;20451;-65
2021/07/01 04:46:13;;;;;;;2.73;1.20;;;14.00;99.90;;;;;;5049649;28;20870;-66
2021/07/01 04:48:42;;;;;;;2.70;1.40;;;14.00;99.90;;;;;;5049742;28;20827;-66
2021/07/01 04:51:10;;;;;;;3.03;1.27;;;14.00;99.90;;;;;;5049271;28;20460;-66
2021/07/01 04:53:39;;;;;;;2.77;0.97;;;14.00;99.90;;;;;;5049983;28;20873;-66
2021/07/01 04:56:06;;;;;;;2.10;0.93;;;14.00;99.90;;;;;;5049542;28;20456;-65
2021/07/01 04:58:33;;;;;;;3.23;0.97;;;14.00;99.90;;;;;;5049160;28;20487;-67
2021/07/01 05:00:59;;;;;;;2.50;1.13;;;14.10;99.90;;;;;;5044764;28;20472;-65
2021/07/01 05:03:26;;;;;;;3.63;1.20;;;14.20;99.90;;;;;;5046927;28;20547;-64
2021/07/01 05:05:55;;;;;;;2.77;1.50;;;14.30;99.90;;;;;;5048731;28;20452;-66
2021/07/01 05:08:22;;;;;;;3.80;1.20;;;14.30;99.90;;;;;;5049279;28;20524;-66
2021/07/01 05:10:48;;;;;;;3.07;1.10;;;14.30;99.90;;;;;;5048438;28;20499;-66
2021/07/01 05:13:15;;;;;;;2.40;1.20;;;14.30;99.90;;;;;;5049314;28;20467;-67
2021/07/01 05:15:42;;;;;;;2.20;1.00;;;14.30;99.90;;;;;;5051510;28;20448;-66
2021/07/01 05:18:09;;;;;;;3.27;1.07;;;14.30;99.90;;;;;;5052809;28;20511;-66
2021/07/01 05:20:36;;;;;;;2.53;1.33;;;14.30;99.90;;;;;;5051780;28;20468;-66
2021/07/01 05:23:04;;;;;;;2.27;1.10;;;14.30;99.90;;;;;;5053083;28;20440;-66
2021/07/01 05:25:32;;;;;;;2.07;0.90;;;14.30;99.90;;;;;;5052200;28;20946;-67
2021/07/01 05:27:58;;;;;;;3.73;1.73;;;14.30;99.90;;;;;;5052769;28;20459;-68
2021/07/01 05:30:25;;;;;;;3.47;1.27;;;14.30;99.90;;;;;;5052374;28;20472;-67
2021/07/01 05:32:52;;;;;;;2.50;1.10;;;14.30;99.90;;;;;;5053568;28;20621;-67
2021/07/01 05:35:19;;;;;;;3.77;1.13;;;14.20;99.90;;;;;;5053358;28;20482;-66
2021/07/01 05:37:46;;;;;;;3.00;1.00;;;14.30;99.90;;;;;;5053106;28;20578;-66
2021/07/01 05:40:17;;;;;;;3.13;1.20;;;14.30;99.90;;;;;;5052150;28;21001;-66
2021/07/01 05:42:44;;;;;;;5.60;1.40;;;14.30;99.90;;;;;;5053439;28;20436;-66
2021/07/01 05:45:12;;;;;;;2.20;1.20;;;14.30;99.90;;;;;;5053040;28;20448;-67
2021/07/01 05:47:39;;;;;;;4.73;1.40;;;14.40;99.90;;;;;;5053134;28;20443;-65
2021/07/01 05:50:09;;;;;;;2.03;1.07;;;14.50;99.90;;;;;;5052386;28;21071;-64
2021/07/01 05:52:37;;;;;;;3.30;1.50;;;14.50;99.90;;;;;;5053297;28;20448;-70
2021/07/01 05:55:04;;;;;;;2.90;1.10;;;14.60;99.90;;;;;;5053099;28;20542;-66
2021/07/01 05:57:32;;;;;;;3.17;1.23;;;14.60;99.90;;;;;;5052470;28;20482;-66
2021/07/01 06:00:00;;;;;;;2.30;0.90;;;14.60;99.90;;;;;;5052220;28;20551;-68
2021/07/01 06:02:27;;;;;;;2.57;1.30;;;14.60;99.90;;;;;;5052979;28;20826;-66
2021/07/01 06:04:54;;;;;;;2.33;1.00;;;14.70;99.90;;;;;;5053324;28;20535;-68
2021/07/01 06:07:23;;;;;;;2.73;1.27;;;14.60;99.90;;;;;;5052282;28;20479;-65
2021/07/01 06:09:53;;;;;;;2.77;1.20;;;14.60;99.90;;;;;;5051728;28;20478;-65
2021/07/01 06:12:23;;;;;;;4.87;1.33;;;14.50;99.90;;;;;;5052738;28;20463;-67
2021/07/01 06:14:56;;;;;;;2.53;1.37;;;14.40;99.90;;;;;;5052657;28;20474;-66
2021/07/01 06:17:24;;;;;;;2.83;1.20;;;14.40;99.90;;;;;;5052011;28;20464;-65
2021/07/01 06:19:51;;;;;;;4.20;1.30;;;14.30;99.90;;;;;;5051670;28;20471;-66
2021/07/01 06:22:21;;;;;;;2.67;1.10;;;14.30;99.90;;;;;;5052417;28;20458;-68
2021/07/01 06:24:49;;;;;;;2.30;1.20;;;14.30;99.90;;;;;;5052597;28;20479;-66
2021/07/01 06:27:21;;;;;;;2.90;1.10;;;14.30;99.90;;;;;;5051836;28;20791;-65
2021/07/01 06:29:48;;;;;;;2.83;1.20;;;14.30;99.90;;;;;;5051542;28;21028;-66
2021/07/01 06:32:17;;;;;;;4.03;1.70;;;14.30;99.90;;;;;;5052563;28;20526;-66
2021/07/01 06:34:44;;;;;;;4.13;1.60;;;14.30;99.90;;;;;;5052515;28;20536;-66
2021/07/01 06:37:12;;;;;;;2.07;1.07;;;14.30;99.90;;;;;;5051816;28;20475;-67
2021/07/01 06:39:44;;;;;;;2.30;1.20;;;14.30;99.90;;;;;;5051141;28;20551;-66
2021/07/01 06:42:11;;;;;;;2.23;1.23;;;14.30;99.90;;;;;;5052046;28;20443;-67
2021/07/01 06:44:39;;;;;;;2.80;1.43;;;14.30;99.90;;;;;;5052320;28;20452;-66
2021/07/01 06:47:08;;;;;;;4.53;1.53;;;14.40;99.90;;;;;;5051853;28;20454;-66
2021/07/01 06:49:38;;;;;;;2.50;1.33;;;14.50;99.90;;;;;;5050890;28;20827;-67
2021/07/01 06:52:07;;;;;;;2.60;1.30;;;14.50;99.90;;;;;;5051971;28;20471;-66
2021/07/01 06:54:35;;;;;;;3.80;1.40;;;14.50;99.90;;;;;;5051773;28;20451;-66
2021/07/01 06:57:02;;;;;;;3.00;1.67;;;14.50;99.90;;;;;;5051261;28;20984;-68
2021/07/01 06:59:29;;;;;;;2.50;1.10;;;14.60;99.90;;;;;;5050906;28;20475;-67
2021/07/01 07:01:57;;;;;;;4.30;1.40;;;14.60;99.90;;;;;;5051484;28;20448;-65
2021/07/01 07:04:25;;;;;;;2.97;1.30;;;14.70;99.90;;;;;;5051790;28;20642;-67
2021/07/01 07:06:54;;;;;;;2.60;1.20;;;14.80;99.90;;;;;;5051447;28;20539;-66
2021/07/01 07:09:21;;;;;;;2.70;1.27;;;14.80;99.90;;;;;;5050770;28;20974;-66
2021/07/01 07:11:50;;;;;;;2.97;1.20;;;14.80;99.90;;;;;;5051398;28;20562;-66
2021/07/01 07:14:17;;;;;;;2.40;1.20;;;14.80;99.90;;;;;;5051806;28;20460;-66
2021/07/01 07:16:46;;;;;;;4.50;1.87;;;14.90;99.90;;;;;;5051411;28;20543;-67
2021/07/01 07:19:13;;;;;;;3.83;1.50;;;14.90;99.90;;;;;;5050967;28;20480;-65
2021/07/01 07:21:46;;;;;;;2.80;1.80;;;14.90;99.90;;;;;;5051440;28;20579;-66
2021/07/01 07:24:16;;;;;;;3.27;1.70;;;15.00;99.90;;;;;;5051827;28;20452;-66
2021/07/01 07:26:44;;;;;;;2.87;1.73;;;15.10;99.90;;;;;;5049473;28;20432;-65
2021/07/01 07:29:16;;;;;;;3.07;1.60;;;15.10;99.90;;;;;;5050728;28;20535;-65
2021/07/01 07:31:44;;;;;;;3.13;1.73;;;15.30;99.90;;;;;;5051533;28;20485;-65
2021/07/01 07:34:11;;;;;;;2.97;1.90;;;15.40;99.90;;;;;;5051772;28;21024;-66
2021/07/01 07:36:38;;;;;;;3.93;2.03;;;15.60;99.90;;;;;;5050540;28;20882;-67
2021/07/01 07:39:07;;;;;;;3.40;1.90;;;15.70;99.90;;;;;;5049649;28;20921;-68
2021/07/01 07:41:35;;;;;;;3.30;2.20;;;15.90;99.90;;;;;;5051025;28;20879;-65
2021/07/01 07:44:02;;;;;;;3.87;1.60;;;16.00;99.90;;;;;;5050858;28;20459;-66
2021/07/01 07:46:31;;;;;;;5.37;2.87;;;16.10;99.90;;;;;;5050929;28;20448;-66
2021/07/01 07:48:58;;;;;;;3.47;2.13;;;16.20;99.90;;;;;;5050581;28;20452;-65
2021/07/01 07:51:29;;;;;;;4.00;1.70;;;16.20;99.90;;;;;;5050776;28;20547;-65
2021/07/01 07:54:03;;;;;;;3.50;2.20;;;16.40;99.90;;;;;;5051267;28;21069;-66
2021/07/01 07:56:38;;;;;;;3.30;2.20;;;16.60;99.90;;;;;;5050514;28;20785;-66
2021/07/01 07:59:10;;;;;;;3.17;1.77;;;16.80;99.90;;;;;;5050418;28;20467;-68
2021/07/01 08:01:39;;;;;;;3.87;2.27;;;17.00;99.90;;;;;;5051041;28;20474;-66
2021/07/01 08:04:07;;;;;;;3.30;2.00;;;17.10;99.90;;;;;;5051015;28;20448;-66
2021/07/01 08:06:35;;;;;;;6.03;2.80;;;17.30;99.90;;;;;;5050738;28;20551;-65
2021/07/01 08:09:05;;;;;;;4.90;2.20;;;17.40;99.90;;;;;;5050014;28;20531;-67
2021/07/01 08:11:35;;;;;;;3.40;2.20;;;17.50;99.90;;;;;;5050831;28;20456;-68
2021/07/01 08:14:03;;;;;;;3.40;2.30;;;17.70;99.90;;;;;;5050433;28;20451;-65
2021/07/01 08:16:32;;;;;;;3.80;2.60;;;17.70;99.90;;;;;;5050478;28;20536;-66
2021/07/01 08:18:59;;;;;;;4.10;2.70;;;17.70;99.90;;;;;;5049618;28;20491;-65
2021/07/01 08:21:27;;;;;;;4.40;2.80;;;17.50;99.90;;;;;;5050072;28;20466;-65
2021/07/01 08:23:54;;;;;;;3.30;2.60;;;17.20;99.90;;;;;;5050280;28;21117;-66
2021/07/01 08:26:21;;;;;;;3.83;2.50;;;17.10;99.90;;;;;;5049880;28;20534;-65
2021/07/01 08:28:48;;;;;;;3.60;2.60;;;17.20;99.90;;;;;;5050560;28;20527;-67
2021/07/01 08:31:17;;;;;;;4.10;2.10;;;17.10;99.90;;;;;;5049161;28;20471;-65
2021/07/01 08:33:48;;;;;;;3.90;2.63;;;17.10;99.90;;;;;;5050180;28;20451;-65
2021/07/01 08:36:16;;;;;;;3.57;2.40;;;17.20;99.90;;;;;;5048781;28;20484;-67
2021/07/01 08:38:44;;;;;;;3.73;2.50;;;17.30;99.90;;;;;;5049920;28;20484;-66
2021/07/01 08:41:16;;;;;;;5.20;2.90;;;17.40;99.90;;;;;;5048780;28;21056;-65
2021/07/01 08:43:53;;;;;;;3.93;2.63;;;17.60;99.90;;;;;;5049562;28;20968;-66
2021/07/01 08:46:25;;;;;;;3.33;2.43;;;17.70;99.90;;;;;;5049727;28;20471;-65
2021/07/01 08:49:04;;;;;;;3.93;2.37;;;17.70;99.90;;;;;;5049774;28;20497;-66
2021/07/01 08:51:35;;;;;;;4.30;2.37;;;17.80;99.90;;;;;;5049981;28;20463;-66
2021/07/01 08:54:24;;;;;;;3.40;2.60;;;17.80;99.90;;;;;;5049725;28;20518;-65
2021/07/01 08:56:53;;;;;;;4.10;2.80;;;17.70;99.90;;;;;;5045296;28;20547;-67
2021/07/01 08:59:22;;;;;;;3.23;2.10;;;17.60;99.90;;;;;;5048879;28;20578;-65
2021/07/01 09:01:56;;;;;;;3.87;2.53;;;17.60;99.90;;;;;;5049802;28;21006;-65
2021/07/01 09:04:26;;;;;;;3.70;2.60;;;17.50;99.90;;;;;;5049665;28;20440;-66
2021/07/01 09:07:00;;;;;;;3.80;2.80;;;17.50;99.90;;;;;;5049592;28;20543;-66
2021/07/01 09:09:33;;;;;;;4.47;2.73;;;17.50;99.90;;;;;;5048955;28;20443;-67
2021/07/01 09:12:03;;;;;;;4.50;2.80;;;17.40;99.90;;;;;;5049779;28;20458;-66
2021/07/01 09:14:32;;;;;;;6.47;2.67;;;17.20;99.90;;;;;;5049925;28;20468;-65
2021/07/01 09:17:03;;;;;;;3.90;2.47;;;16.90;99.90;;;;;;5049503;28;20444;-66
2021/07/01 09:19:31;;;;;;;4.27;2.97;;;16.90;99.90;;;;;;5048844;28;20582;-67
2021/07/01 09:22:01;;;;;;;3.50;3.00;;;16.80;99.90;;;;;;5049538;28;20475;-67
2021/07/01 09:24:34;;;;;;;3.23;2.60;;;16.70;99.90;;;;;;5049414;28;20542;-66
2021/07/01 09:27:08;;;;;;;3.70;2.83;;;16.70;99.90;;;;;;5048850;28;20483;-67
2021/07/01 09:29:35;;;;;;;4.50;2.90;;;16.80;99.90;;;;;;5048422;28;20815;-66
2021/07/01 09:32:03;;;;;;;3.70;2.70;;;16.90;99.90;;;;;;5049292;28;20538;-66
2021/07/01 09:34:33;;;;;;;3.67;2.67;;;17.10;99.90;;;;;;5049226;28;20452;-67
2021/07/01 09:37:02;;;;;;;3.60;2.33;;;17.10;99.90;;;;;;5049293;28;20444;-68
2021/07/01 09:39:31;;;;;;;3.70;3.00;;;17.10;99.90;;;;;;5048263;28;20484;-66
2021/07/01 09:42:00;;;;;;;4.90;3.17;;;17.20;99.90;;;;;;5049470;28;20534;-66
2021/07/01 09:44:29;;;;;;;3.73;2.87;;;17.20;99.90;;;;;;5049438;28;20868;-66
2021/07/01 09:46:57;;;;;;;5.23;2.67;;;17.20;99.90;;;;;;5048800;28;20459;-67
2021/07/01 09:49:32;;;;;;;3.63;2.77;;;17.50;99.90;;;;;;5048528;28;20820;-67
2021/07/01 09:52:03;;;;;;;6.10;3.23;;;17.80;99.90;;;;;;5049387;28;20433;-66
2021/07/01 09:54:32;;;;;;;4.17;2.90;;;18.00;99.90;;;;;;5048999;28;20450;-66
2021/07/01 09:57:04;;;;;;;7.23;3.60;;;18.00;99.90;;;;;;5048896;28;20454;-67
2021/07/01 09:59:40;;;;;;;4.23;3.63;;;18.10;99.90;;;;;;5048144;28;20475;-65
2021/07/01 10:02:15;;;;;;;5.27;3.77;;;18.30;99.90;;;;;;5052313;28;20538;-66
2021/07/01 10:04:46;;;;;;;6.20;3.53;;;18.50;99.90;;;;;;5052585;28;20490;-66
2021/07/01 10:07:13;;;;;;;8.10;3.67;;;18.40;99.90;;;;;;5052148;28;20450;-67
2021/07/01 10:09:40;;;;;;;7.17;3.00;;;18.30;99.90;;;;;;5051689;28;20450;-66
2021/07/01 10:12:18;;;;;;;5.17;3.57;;;18.30;99.90;;;;;;5052632;28;21033;-68
2021/07/01 10:14:46;;;;;;;5.27;3.37;;;18.50;99.90;;;;;;5052691;28;20538;-67
2021/07/01 10:17:14;;;;;;;5.43;3.10;;;18.60;99.90;;;;;;5052033;28;20452;-65
2021/07/01 10:19:43;;;;;;;4.30;3.37;;;18.40;99.90;;;;;;5051693;28;20586;-65
2021/07/01 10:22:11;;;;;;;6.70;3.60;;;18.20;99.90;;;;;;5052402;28;20448;-66
2021/07/01 10:24:50;;;;;;;8.93;3.57;;;17.90;99.90;;;;;;5052644;28;20957;-65
2021/07/01 10:27:32;;;;;;;6.30;4.30;;;17.60;99.90;;;;;;5052393;28;20440;-65
2021/07/01 10:30:01;;;;;;;5.70;4.73;;;17.20;99.90;;;;;;5051685;28;20468;-66
2021/07/01 10:32:40;;;;;;;6.53;5.27;;;16.80;99.90;;;;;;5052428;28;20458;-67
2021/07/01 10:35:21;;;;;;;5.43;4.93;;;16.40;99.90;;;;;;5052163;28;20448;-66
2021/07/01 10:37:59;;;;;;;5.73;5.17;;;16.20;99.90;;;;;;5051892;28;20530;-68
2021/07/01 10:40:26;;;;;;;3.67;2.60;;;15.90;99.90;;;;;;5050907;28;20920;-65
2021/07/01 10:42:56;;;;;;;4.63;2.90;;;15.60;99.90;;;;;;5052354;28;20486;-66
2021/07/01 10:45:24;;;;;;;4.50;2.87;;;15.30;99.90;;;;;;5051902;28;20450;-67
2021/07/01 10:47:51;;;;;;;4.00;3.10;;;15.20;99.90;;;;;;5051622;28;20554;-66
2021/07/01 10:50:30;;;;;;;4.30;3.43;;;15.00;99.90;;;;;;5050859;28;20476;-67
2021/07/01 10:52:58;;;;;;;5.50;3.37;;;14.80;99.90;;;;;;5051679;28;20451;-66
2021/07/01 10:55:25;;;;;;;4.13;3.30;;;14.70;99.90;;;;;;5051851;28;20470;-67
2021/07/01 10:57:56;;;;;;;5.90;4.77;;;14.80;99.90;;;;;;5051632;28;20454;-65
2021/07/01 11:00:38;;;;;;;4.43;3.03;;;14.90;99.90;;;;;;5050714;28;20537;-67
2021/07/01 11:03:05;;;;;;;4.27;3.40;;;15.10;99.90;;;;;;5049821;28;20452;-66
2021/07/01 11:05:37;;;;;;;7.30;4.13;;;15.40;99.90;;;;;;5051276;28;20439;-65
2021/07/01 11:08:06;;;;;;;6.23;3.73;;;15.50;99.90;;;;;;5051558;28;20460;-66
2021/07/01 11:10:34;;;;;;;6.83;4.43;;;15.60;99.90;;;;;;5051048;28;21137;-68
2021/07/01 11:13:06;;;;;;;6.20;4.97;;;15.80;99.90;;;;;;5051588;28;20478;-66
2021/07/01 11:15:33;;;;;;;4.00;3.60;;;16.10;99.90;;;;;;5051354;28;20879;-66
2021/07/01 11:18:08;;;;;;;4.30;3.67;;;16.50;99.90;;;;;;5050952;28;20444;-66
2021/07/01 11:20:35;;;;;;;5.50;3.60;;;16.90;99.90;;;;;;5050473;28;20483;-66
2021/07/01 11:23:03;;;;;;;3.57;2.87;;;17.10;99.90;;;;;;5051366;28;20454;-66
2021/07/01 11:25:34;;;;;;;5.43;3.17;;;17.40;99.90;;;;;;5051426;28;20455;-67
2021/07/01 11:28:16;;;;;;;5.20;3.73;;;17.60;99.90;;;;;;5050927;28;21024;-68
2021/07/01 11:30:51;;;;;;;3.60;2.90;;;17.80;99.90;;;;;;5050410;28;20548;-67
2021/07/01 11:33:20;;;;;;;4.03;3.00;;;17.70;99.90;;;;;;5051500;28;20454;-67
2021/07/01 11:35:47;;;;;;;5.17;3.20;;;17.70;99.90;;;;;;5050751;28;20448;-68
2021/07/01 11:38:30;;;;;;;4.47;3.17;;;17.70;99.90;;;;;;5051202;28;20448;-67
2021/07/01 11:40:59;;;;;;;4.13;3.30;;;17.60;99.90;;;;;;5050111;28;20486;-67
2021/07/01 11:43:27;;;;;;;5.27;3.87;;;17.60;99.90;;;;;;5051491;28;20444;-69
2021/07/01 11:45:54;;;;;;;4.03;3.20;;;17.60;99.90;;;;;;5050753;28;20893;-66
2021/07/01 11:48:23;;;;;;;4.27;3.10;;;17.60;99.90;;;;;;5050790;28;20494;-65
2021/07/01 11:50:51;;;;;;;4.50;2.80;;;17.90;99.90;;;;;;5049694;28;20483;-66
2021/07/01 11:53:20;;;;;;;3.80;2.77;;;17.90;99.90;;;;;;5047319;28;20444;-66
2021/07/01 11:55:50;;;;;;;4.40;3.03;;;17.90;99.90;;;;;;5036227;28;20532;-67
2021/07/01 11:58:17;;;;;;;4.23;3.07;;;17.90;99.90;;;;;;5040111;28;20444;-66
2021/07/01 12:00:45;;;;;;;5.10;3.30;;;18.10;99.90;;;;;;5037465;28;20576;-65
2021/07/01 12:03:13;;;;;;;4.47;3.10;;;18.10;99.90;;;;;;5039275;28;20436;-65
2021/07/01 12:05:42;;;;;;;3.97;2.80;;;18.20;99.90;;;;;;5040102;28;20536;-67
2021/07/01 12:08:10;;;;;;;4.57;3.20;;;18.10;99.90;;;;;;5038766;28;20440;-65
2021/07/01 12:10:37;;;;;;;4.00;3.10;;;18.20;99.90;;;;;;5032958;28;20501;-64
2021/07/01 12:13:44;;;;;;;4.77;3.67;;;18.20;99.90;;;;;;5030350;28;20449;-67
2021/07/01 12:16:13;;;;;;;4.50;3.10;;;18.10;99.90;;;;;;5029991;28;20532;-64
2021/07/01 12:18:51;;;;;;;4.53;2.97;;;18.00;99.90;;;;;;5030501;28;20448;-67
2021/07/01 12:21:19;;;;;;;5.10;3.27;;;17.90;99.90;;;;;;5029940;28;20568;-65
2021/07/01 12:23:47;;;;;;;5.53;3.60;;;17.80;99.90;;;;;;5030312;28;20540;-65
2021/07/01 12:26:34;;;;;;;4.13;3.60;;;17.90;99.90;;;;;;5034832;28;20475;-66
2021/07/01 12:29:04;;;;;;;6.60;3.33;;;18.40;99.90;;;;;;5040803;28;20534;-66
2021/07/01 12:31:32;;;;;;;6.67;4.23;;;19.00;99.90;;;;;;5041855;28;20994;-67
2021/07/01 12:34:03;;;;;;;3.57;2.97;;;19.40;99.90;;;;;;5040105;28;20440;-66
2021/07/01 12:36:31;;;;;;;4.33;3.13;;;19.10;99.90;;;;;;5034137;28;20471;-66
2021/07/01 12:39:22;;;;;;;4.90;3.50;;;18.70;99.90;;;;;;5040931;28;20547;-64
2021/07/01 12:41:52;;;;;;;4.40;3.60;;;18.20;99.90;;;;;;5038510;28;20467;-68
2021/07/01 12:44:26;;;;;;;4.63;3.67;;;17.80;99.90;;;;;;5037644;28;20518;-67
2021/07/01 12:47:12;;;;;;;4.07;3.40;;;17.60;99.90;;;;;;5049317;28;20865;-66
2021/07/01 12:49:50;;;;;;;4.67;3.80;;;17.50;99.90;;;;;;5049023;28;20844;-66
2021/07/01 12:52:24;;;;;;;4.40;3.60;;;17.60;99.90;;;;;;5049721;28;20880;-67
2021/07/01 12:54:56;;;;;;;5.10;3.70;;;17.80;99.90;;;;;;5050005;28;20424;-65
2021/07/01 12:57:23;;;;;;;4.40;3.50;;;18.30;99.90;;;;;;5049220;28;20446;-66